sensor_id;sensor_type;location;lat;lon;timestamp;P1;durP1;ratioP1;P2;durP2;ratioP2
11807;SDS011;5961;42.640;23.380;2023-05-07T00:00:34;4.50;;;3.90;;
11807;SDS011;5961;42.640;23.380;2023-05-07T00:03:01;6.57;;;3.93;;
11807;SDS011;5961;42.640;23.380;2023-05-07T00:05:28;4.63;;;3.83;;
11807;SDS011;5961;42.640;23.380;2023-05-07T00:07:54;5.67;;;3.90;;
11807;SDS011;5961;42.640;23.380;2023-05-07T00:10:21;6.47;;;4.30;;
11807;SDS011;5961;42.640;23.380;2023-05-07T00:12:48;7.93;;;4.10;;
11807;SDS011;5961;42.640;23.380;2023-05-07T00:15:14;5.00;;;3.70;;
11807;SDS011;5961;42.640;23.380;2023-05-07T00:17:42;7.13;;;3.97;;
11807;SDS011;5961;42.640;23.380;2023-05-07T00:20:09;5.13;;;3.83;;
11807;SDS011;5961;42.640;23.380;2023-05-07T00:22:36;4.10;;;3.53;;
11807;SDS011;5961;42.640;23.380;2023-05-07T00:25:03;5.87;;;4.10;;
11807;SDS011;5961;42.640;23.380;2023-05-07T00:27:31;6.97;;;4.33;;
11807;SDS011;5961;42.640;23.380;2023-05-07T00:29:57;5.20;;;4.33;;
11807;SDS011;5961;42.640;23.380;2023-05-07T00:32:24;6.23;;;4.63;;
11807;SDS011;5961;42.640;23.380;2023-05-07T00:34:52;8.80;;;5.50;;
11807;SDS011;5961;42.640;23.380;2023-05-07T00:37:19;6.70;;;5.70;;
11807;SDS011;5961;42.640;23.380;2023-05-07T00:39:45;11.47;;;6.80;;
11807;SDS011;5961;42.640;23.380;2023-05-07T00:42:12;10.43;;;6.40;;
11807;SDS011;5961;42.640;23.380;2023-05-07T00:44:40;7.63;;;5.30;;
11807;SDS011;5961;42.640;23.380;2023-05-07T00:47:06;9.63;;;5.60;;
11807;SDS011;5961;42.640;23.380;2023-05-07T00:49:35;6.50;;;5.13;;
11807;SDS011;5961;42.640;23.380;2023-05-07T00:52:06;4.97;;;4.47;;
11807;SDS011;5961;42.640;23.380;2023-05-07T00:54:35;4.50;;;3.67;;
11807;SDS011;5961;42.640;23.380;2023-05-07T00:57:02;5.27;;;3.77;;
11807;SDS011;5961;42.640;23.380;2023-05-07T00:59:29;5.60;;;4.33;;
11807;SDS011;5961;42.640;23.380;2023-05-07T01:01:58;4.73;;;4.23;;
11807;SDS011;5961;42.640;23.380;2023-05-07T01:04:25;4.93;;;4.20;;
11807;SDS011;5961;42.640;23.380;2023-05-07T01:06:52;4.97;;;4.27;;
11807;SDS011;5961;42.640;23.380;2023-05-07T01:09:22;4.33;;;3.93;;
11807;SDS011;5961;42.640;23.380;2023-05-07T01:11:50;6.27;;;4.60;;
11807;SDS011;5961;42.640;23.380;2023-05-07T01:14:18;5.63;;;4.00;;
11807;SDS011;5961;42.640;23.380;2023-05-07T01:16:45;6.53;;;4.30;;
11807;SDS011;5961;42.640;23.380;2023-05-07T01:19:12;6.07;;;4.10;;
11807;SDS011;5961;42.640;23.380;2023-05-07T01:21:41;5.60;;;4.77;;
11807;SDS011;5961;42.640;23.380;2023-05-07T01:24:13;8.37;;;4.80;;
11807;SDS011;5961;42.640;23.380;2023-05-07T01:26:42;5.80;;;5.07;;
11807;SDS011;5961;42.640;23.380;2023-05-07T01:29:10;7.60;;;4.80;;
11807;SDS011;5961;42.640;23.380;2023-05-07T01:31:37;6.57;;;5.30;;
11807;SDS011;5961;42.640;23.380;2023-05-07T01:34:05;5.40;;;4.70;;
11807;SDS011;5961;42.640;23.380;2023-05-07T01:36:35;6.63;;;4.80;;
11807;SDS011;5961;42.640;23.380;2023-05-07T01:39:05;6.63;;;4.63;;
11807;SDS011;5961;42.640;23.380;2023-05-07T01:41:34;7.07;;;4.90;;
11807;SDS011;5961;42.640;23.380;2023-05-07T01:44:01;6.87;;;4.73;;
11807;SDS011;5961;42.640;23.380;2023-05-07T01:46:29;7.20;;;5.43;;
11807;SDS011;5961;42.640;23.380;2023-05-07T01:48:57;7.50;;;6.70;;
11807;SDS011;5961;42.640;23.380;2023-05-07T01:51:24;7.73;;;6.33;;
11807;SDS011;5961;42.640;23.380;2023-05-07T01:53:52;10.50;;;6.50;;
11807;SDS011;5961;42.640;23.380;2023-05-07T01:56:19;8.47;;;6.43;;
11807;SDS011;5961;42.640;23.380;2023-05-07T01:58:47;11.83;;;6.67;;
11807;SDS011;5961;42.640;23.380;2023-05-07T02:01:14;8.23;;;7.00;;
11807;SDS011;5961;42.640;23.380;2023-05-07T02:03:41;7.50;;;6.73;;
11807;SDS011;5961;42.640;23.380;2023-05-07T02:06:08;10.67;;;7.17;;
11807;SDS011;5961;42.640;23.380;2023-05-07T02:08:34;8.17;;;6.97;;
11807;SDS011;5961;42.640;23.380;2023-05-07T02:11:01;7.30;;;6.47;;
11807;SDS011;5961;42.640;23.380;2023-05-07T02:13:29;8.80;;;7.17;;
11807;SDS011;5961;42.640;23.380;2023-05-07T02:16:00;8.13;;;6.83;;
11807;SDS011;5961;42.640;23.380;2023-05-07T02:18:27;8.47;;;7.03;;
11807;SDS011;5961;42.640;23.380;2023-05-07T02:20:54;7.57;;;6.87;;
11807;SDS011;5961;42.640;23.380;2023-05-07T02:23:21;10.37;;;7.67;;
11807;SDS011;5961;42.640;23.380;2023-05-07T02:25:48;10.37;;;7.10;;
11807;SDS011;5961;42.640;23.380;2023-05-07T02:28:14;10.30;;;7.13;;
11807;SDS011;5961;42.640;23.380;2023-05-07T02:30:41;8.13;;;7.33;;
11807;SDS011;5961;42.640;23.380;2023-05-07T02:33:09;9.63;;;7.57;;
11807;SDS011;5961;42.640;23.380;2023-05-07T02:35:37;9.97;;;7.50;;
11807;SDS011;5961;42.640;23.380;2023-05-07T02:38:04;10.50;;;7.23;;
11807;SDS011;5961;42.640;23.380;2023-05-07T02:40:30;8.17;;;7.37;;
11807;SDS011;5961;42.640;23.380;2023-05-07T02:42:58;8.33;;;7.40;;
11807;SDS011;5961;42.640;23.380;2023-05-07T02:45:25;8.07;;;7.27;;
11807;SDS011;5961;42.640;23.380;2023-05-07T02:47:52;8.33;;;6.93;;
11807;SDS011;5961;42.640;23.380;2023-05-07T02:50:20;7.67;;;6.77;;
11807;SDS011;5961;42.640;23.380;2023-05-07T02:52:47;9.10;;;7.13;;
11807;SDS011;5961;42.640;23.380;2023-05-07T02:55:13;8.80;;;7.13;;
11807;SDS011;5961;42.640;23.380;2023-05-07T02:57:40;9.43;;;7.77;;
11807;SDS011;5961;42.640;23.380;2023-05-07T03:00:10;10.10;;;7.57;;
11807;SDS011;5961;42.640;23.380;2023-05-07T03:02:38;8.90;;;7.43;;
11807;SDS011;5961;42.640;23.380;2023-05-07T03:05:05;9.77;;;8.07;;
11807;SDS011;5961;42.640;23.380;2023-05-07T03:07:34;10.20;;;8.33;;
11807;SDS011;5961;42.640;23.380;2023-05-07T03:10:01;12.90;;;8.30;;
11807;SDS011;5961;42.640;23.380;2023-05-07T03:12:28;12.60;;;8.47;;
11807;SDS011;5961;42.640;23.380;2023-05-07T03:14:54;9.90;;;8.03;;
11807;SDS011;5961;42.640;23.380;2023-05-07T03:17:21;12.20;;;8.83;;
11807;SDS011;5961;42.640;23.380;2023-05-07T03:19:48;10.97;;;8.87;;
11807;SDS011;5961;42.640;23.380;2023-05-07T03:22:14;11.10;;;8.87;;
11807;SDS011;5961;42.640;23.380;2023-05-07T03:24:43;10.70;;;9.23;;
11807;SDS011;5961;42.640;23.380;2023-05-07T03:27:09;11.10;;;9.20;;
11807;SDS011;5961;42.640;23.380;2023-05-07T03:29:36;10.90;;;9.80;;
11807;SDS011;5961;42.640;23.380;2023-05-07T03:32:03;10.67;;;9.40;;
11807;SDS011;5961;42.640;23.380;2023-05-07T03:34:30;11.30;;;10.13;;
11807;SDS011;5961;42.640;23.380;2023-05-07T03:36:57;11.80;;;10.37;;
11807;SDS011;5961;42.640;23.380;2023-05-07T03:39:24;15.37;;;10.40;;
11807;SDS011;5961;42.640;23.380;2023-05-07T03:41:52;11.77;;;10.40;;
11807;SDS011;5961;42.640;23.380;2023-05-07T03:44:19;12.40;;;10.70;;
11807;SDS011;5961;42.640;23.380;2023-05-07T03:46:46;14.57;;;10.67;;
11807;SDS011;5961;42.640;23.380;2023-05-07T03:49:12;13.23;;;10.53;;
11807;SDS011;5961;42.640;23.380;2023-05-07T03:51:39;14.93;;;10.90;;
11807;SDS011;5961;42.640;23.380;2023-05-07T03:54:06;16.27;;;10.93;;
11807;SDS011;5961;42.640;23.380;2023-05-07T03:56:32;12.87;;;11.47;;
11807;SDS011;5961;42.640;23.380;2023-05-07T03:59:00;12.73;;;11.23;;
11807;SDS011;5961;42.640;23.380;2023-05-07T04:01:27;13.80;;;10.20;;
11807;SDS011;5961;42.640;23.380;2023-05-07T04:03:54;13.33;;;10.53;;
11807;SDS011;5961;42.640;23.380;2023-05-07T04:06:21;13.77;;;11.07;;
11807;SDS011;5961;42.640;23.380;2023-05-07T04:08:48;14.57;;;10.77;;
11807;SDS011;5961;42.640;23.380;2023-05-07T04:11:14;15.70;;;12.83;;
11807;SDS011;5961;42.640;23.380;2023-05-07T04:13:41;18.83;;;15.17;;
11807;SDS011;5961;42.640;23.380;2023-05-07T04:16:09;18.73;;;12.57;;
11807;SDS011;5961;42.640;23.380;2023-05-07T04:18:36;13.83;;;11.27;;
11807;SDS011;5961;42.640;23.380;2023-05-07T04:21:02;25.73;;;18.13;;
11807;SDS011;5961;42.640;23.380;2023-05-07T04:23:29;16.33;;;12.53;;
11807;SDS011;5961;42.640;23.380;2023-05-07T04:25:56;14.60;;;10.80;;
11807;SDS011;5961;42.640;23.380;2023-05-07T04:28:23;15.40;;;12.47;;
11807;SDS011;5961;42.640;23.380;2023-05-07T04:30:50;14.03;;;11.23;;
11807;SDS011;5961;42.640;23.380;2023-05-07T04:33:18;14.13;;;10.87;;
11807;SDS011;5961;42.640;23.380;2023-05-07T04:35:45;13.73;;;11.43;;
11807;SDS011;5961;42.640;23.380;2023-05-07T04:38:12;13.30;;;11.40;;
11807;SDS011;5961;42.640;23.380;2023-05-07T04:40:39;15.00;;;11.43;;
11807;SDS011;5961;42.640;23.380;2023-05-07T04:43:06;15.77;;;11.60;;
11807;SDS011;5961;42.640;23.380;2023-05-07T04:45:34;15.00;;;11.07;;
11807;SDS011;5961;42.640;23.380;2023-05-07T04:48:00;24.43;;;12.23;;
11807;SDS011;5961;42.640;23.380;2023-05-07T04:50:28;13.63;;;11.33;;
11807;SDS011;5961;42.640;23.380;2023-05-07T04:52:55;14.00;;;10.77;;
11807;SDS011;5961;42.640;23.380;2023-05-07T04:55:22;13.93;;;10.73;;
11807;SDS011;5961;42.640;23.380;2023-05-07T04:57:48;20.73;;;15.17;;
11807;SDS011;5961;42.640;23.380;2023-05-07T05:00:15;16.00;;;12.03;;
11807;SDS011;5961;42.640;23.380;2023-05-07T05:02:44;17.33;;;11.57;;
11807;SDS011;5961;42.640;23.380;2023-05-07T05:05:11;13.83;;;11.17;;
11807;SDS011;5961;42.640;23.380;2023-05-07T05:07:39;15.47;;;12.50;;
11807;SDS011;5961;42.640;23.380;2023-05-07T05:10:06;12.47;;;10.70;;
11807;SDS011;5961;42.640;23.380;2023-05-07T05:12:33;13.30;;;10.43;;
11807;SDS011;5961;42.640;23.380;2023-05-07T05:14:59;19.20;;;11.10;;
11807;SDS011;5961;42.640;23.380;2023-05-07T05:17:26;14.17;;;11.30;;
11807;SDS011;5961;42.640;23.380;2023-05-07T05:19:52;17.50;;;11.80;;
11807;SDS011;5961;42.640;23.380;2023-05-07T05:22:19;19.60;;;13.70;;
11807;SDS011;5961;42.640;23.380;2023-05-07T05:24:47;19.50;;;14.13;;
11807;SDS011;5961;42.640;23.380;2023-05-07T05:27:14;15.93;;;12.47;;
11807;SDS011;5961;42.640;23.380;2023-05-07T05:29:40;14.90;;;12.07;;
11807;SDS011;5961;42.640;23.380;2023-05-07T05:32:07;17.27;;;10.87;;
11807;SDS011;5961;42.640;23.380;2023-05-07T05:34:34;13.30;;;10.60;;
11807;SDS011;5961;42.640;23.380;2023-05-07T05:37:00;24.27;;;16.87;;
11807;SDS011;5961;42.640;23.380;2023-05-07T05:39:27;21.80;;;14.90;;
11807;SDS011;5961;42.640;23.380;2023-05-07T05:41:55;16.40;;;12.13;;
11807;SDS011;5961;42.640;23.380;2023-05-07T05:44:22;13.03;;;9.87;;
11807;SDS011;5961;42.640;23.380;2023-05-07T05:46:49;15.03;;;10.70;;
11807;SDS011;5961;42.640;23.380;2023-05-07T05:49:15;21.27;;;15.50;;
11807;SDS011;5961;42.640;23.380;2023-05-07T05:51:42;27.30;;;20.00;;
11807;SDS011;5961;42.640;23.380;2023-05-07T05:54:09;17.93;;;12.40;;
11807;SDS011;5961;42.640;23.380;2023-05-07T05:56:36;29.77;;;22.83;;
11807;SDS011;5961;42.640;23.380;2023-05-07T05:59:04;15.50;;;10.90;;
11807;SDS011;5961;42.640;23.380;2023-05-07T06:01:32;12.90;;;10.83;;
11807;SDS011;5961;42.640;23.380;2023-05-07T06:03:58;13.60;;;11.37;;
11807;SDS011;5961;42.640;23.380;2023-05-07T06:06:25;16.13;;;11.10;;
11807;SDS011;5961;42.640;23.380;2023-05-07T06:08:52;18.33;;;15.00;;
11807;SDS011;5961;42.640;23.380;2023-05-07T06:11:19;19.70;;;14.03;;
11807;SDS011;5961;42.640;23.380;2023-05-07T06:13:46;13.93;;;11.33;;
11807;SDS011;5961;42.640;23.380;2023-05-07T06:16:14;15.60;;;12.33;;
11807;SDS011;5961;42.640;23.380;2023-05-07T06:18:41;12.67;;;10.53;;
11807;SDS011;5961;42.640;23.380;2023-05-07T06:21:08;13.27;;;11.70;;
11807;SDS011;5961;42.640;23.380;2023-05-07T06:23:35;15.00;;;11.60;;
11807;SDS011;5961;42.640;23.380;2023-05-07T06:26:02;15.43;;;11.03;;
11807;SDS011;5961;42.640;23.380;2023-05-07T06:28:29;16.87;;;13.13;;
11807;SDS011;5961;42.640;23.380;2023-05-07T06:31:10;12.70;;;9.80;;
11807;SDS011;5961;42.640;23.380;2023-05-07T06:33:39;16.40;;;12.27;;
11807;SDS011;5961;42.640;23.380;2023-05-07T06:36:06;16.03;;;11.20;;
11807;SDS011;5961;42.640;23.380;2023-05-07T06:38:32;12.43;;;11.10;;
11807;SDS011;5961;42.640;23.380;2023-05-07T06:40:59;15.43;;;10.33;;
11807;SDS011;5961;42.640;23.380;2023-05-07T06:43:26;16.50;;;10.27;;
11807;SDS011;5961;42.640;23.380;2023-05-07T06:45:53;14.77;;;10.30;;
11807;SDS011;5961;42.640;23.380;2023-05-07T06:48:19;10.77;;;9.57;;
11807;SDS011;5961;42.640;23.380;2023-05-07T06:50:47;13.13;;;9.53;;
11807;SDS011;5961;42.640;23.380;2023-05-07T06:53:14;14.60;;;11.17;;
11807;SDS011;5961;42.640;23.380;2023-05-07T06:55:41;14.07;;;9.77;;
11807;SDS011;5961;42.640;23.380;2023-05-07T06:58:07;10.47;;;9.43;;
11807;SDS011;5961;42.640;23.380;2023-05-07T07:00:34;11.47;;;9.47;;
11807;SDS011;5961;42.640;23.380;2023-05-07T07:03:01;13.83;;;9.80;;
11807;SDS011;5961;42.640;23.380;2023-05-07T07:05:27;11.63;;;9.10;;
11807;SDS011;5961;42.640;23.380;2023-05-07T07:07:55;11.43;;;8.97;;
11807;SDS011;5961;42.640;23.380;2023-05-07T07:10:22;10.13;;;9.07;;
11807;SDS011;5961;42.640;23.380;2023-05-07T07:12:49;11.07;;;9.47;;
11807;SDS011;5961;42.640;23.380;2023-05-07T07:15:17;11.70;;;9.30;;
11807;SDS011;5961;42.640;23.380;2023-05-07T07:17:45;14.87;;;10.30;;
11807;SDS011;5961;42.640;23.380;2023-05-07T07:20:12;12.13;;;10.13;;
11807;SDS011;5961;42.640;23.380;2023-05-07T07:22:39;11.73;;;9.40;;
11807;SDS011;5961;42.640;23.380;2023-05-07T07:25:07;14.23;;;9.27;;
11807;SDS011;5961;42.640;23.380;2023-05-07T07:27:36;10.87;;;9.27;;
11807;SDS011;5961;42.640;23.380;2023-05-07T07:30:03;10.60;;;8.33;;
11807;SDS011;5961;42.640;23.380;2023-05-07T07:32:30;12.07;;;9.63;;
11807;SDS011;5961;42.640;23.380;2023-05-07T07:34:57;9.20;;;8.30;;
11807;SDS011;5961;42.640;23.380;2023-05-07T07:37:24;12.60;;;9.20;;
11807;SDS011;5961;42.640;23.380;2023-05-07T07:39:50;13.07;;;9.50;;
11807;SDS011;5961;42.640;23.380;2023-05-07T07:42:18;12.80;;;9.23;;
11807;SDS011;5961;42.640;23.380;2023-05-07T07:44:45;14.47;;;9.47;;
11807;SDS011;5961;42.640;23.380;2023-05-07T07:47:12;12.07;;;9.70;;
11807;SDS011;5961;42.640;23.380;2023-05-07T07:49:38;11.30;;;7.90;;
11807;SDS011;5961;42.640;23.380;2023-05-07T07:52:05;11.00;;;8.93;;
11807;SDS011;5961;42.640;23.380;2023-05-07T07:54:32;10.37;;;8.17;;
11807;SDS011;5961;42.640;23.380;2023-05-07T07:56:59;9.30;;;7.90;;
11807;SDS011;5961;42.640;23.380;2023-05-07T07:59:27;10.13;;;8.53;;
11807;SDS011;5961;42.640;23.380;2023-05-07T08:01:54;12.27;;;9.03;;
11807;SDS011;5961;42.640;23.380;2023-05-07T08:04:22;13.50;;;10.17;;
11807;SDS011;5961;42.640;23.380;2023-05-07T08:06:48;13.87;;;9.20;;
11807;SDS011;5961;42.640;23.380;2023-05-07T08:09:15;13.30;;;9.33;;
11807;SDS011;5961;42.640;23.380;2023-05-07T08:11:42;11.20;;;9.17;;
11807;SDS011;5961;42.640;23.380;2023-05-07T08:14:08;16.07;;;11.27;;
11807;SDS011;5961;42.640;23.380;2023-05-07T08:16:36;15.07;;;11.00;;
11807;SDS011;5961;42.640;23.380;2023-05-07T08:19:03;15.43;;;11.17;;
11807;SDS011;5961;42.640;23.380;2023-05-07T08:21:30;15.77;;;12.50;;
11807;SDS011;5961;42.640;23.380;2023-05-07T08:23:57;12.57;;;9.13;;
11807;SDS011;5961;42.640;23.380;2023-05-07T08:26:23;10.23;;;9.13;;
11807;SDS011;5961;42.640;23.380;2023-05-07T08:28:50;13.53;;;10.20;;
11807;SDS011;5961;42.640;23.380;2023-05-07T08:31:17;13.30;;;10.00;;
11807;SDS011;5961;42.640;23.380;2023-05-07T08:33:45;13.03;;;8.70;;
11807;SDS011;5961;42.640;23.380;2023-05-07T08:36:11;10.27;;;8.47;;
11807;SDS011;5961;42.640;23.380;2023-05-07T08:38:38;14.63;;;9.87;;
11807;SDS011;5961;42.640;23.380;2023-05-07T08:41:09;11.40;;;9.23;;
11807;SDS011;5961;42.640;23.380;2023-05-07T08:43:36;13.67;;;10.97;;
11807;SDS011;5961;42.640;23.380;2023-05-07T08:46:06;13.27;;;9.00;;
11807;SDS011;5961;42.640;23.380;2023-05-07T08:48:35;9.37;;;8.07;;
11807;SDS011;5961;42.640;23.380;2023-05-07T08:51:04;12.23;;;7.07;;
11807;SDS011;5961;42.640;23.380;2023-05-07T08:53:31;7.77;;;6.50;;
11807;SDS011;5961;42.640;23.380;2023-05-07T08:55:59;9.60;;;6.13;;
11807;SDS011;5961;42.640;23.380;2023-05-07T08:58:26;7.23;;;6.10;;
11807;SDS011;5961;42.640;23.380;2023-05-07T09:00:53;10.33;;;5.93;;
11807;SDS011;5961;42.640;23.380;2023-05-07T09:03:20;9.80;;;5.87;;
11807;SDS011;5961;42.640;23.380;2023-05-07T09:05:47;9.90;;;6.60;;
11807;SDS011;5961;42.640;23.380;2023-05-07T09:08:15;12.13;;;6.50;;
11807;SDS011;5961;42.640;23.380;2023-05-07T09:10:42;9.57;;;6.17;;
11807;SDS011;5961;42.640;23.380;2023-05-07T09:13:08;8.67;;;5.70;;
11807;SDS011;5961;42.640;23.380;2023-05-07T09:15:38;7.13;;;5.50;;
11807;SDS011;5961;42.640;23.380;2023-05-07T09:18:04;10.73;;;6.27;;
11807;SDS011;5961;42.640;23.380;2023-05-07T09:20:31;6.40;;;5.60;;
11807;SDS011;5961;42.640;23.380;2023-05-07T09:22:58;9.07;;;5.87;;
11807;SDS011;5961;42.640;23.380;2023-05-07T09:25:29;8.30;;;6.07;;
11807;SDS011;5961;42.640;23.380;2023-05-07T09:27:57;7.00;;;5.67;;
11807;SDS011;5961;42.640;23.380;2023-05-07T09:30:26;7.70;;;5.63;;
11807;SDS011;5961;42.640;23.380;2023-05-07T09:32:54;5.53;;;5.03;;
11807;SDS011;5961;42.640;23.380;2023-05-07T09:35:21;6.47;;;5.17;;
11807;SDS011;5961;42.640;23.380;2023-05-07T09:37:49;9.40;;;6.10;;
11807;SDS011;5961;42.640;23.380;2023-05-07T09:40:22;6.27;;;5.37;;
11807;SDS011;5961;42.640;23.380;2023-05-07T09:42:51;7.17;;;5.50;;
11807;SDS011;5961;42.640;23.380;2023-05-07T09:45:21;6.20;;;5.57;;
11807;SDS011;5961;42.640;23.380;2023-05-07T09:47:49;10.07;;;5.83;;
11807;SDS011;5961;42.640;23.380;2023-05-07T09:50:18;5.40;;;4.90;;
11807;SDS011;5961;42.640;23.380;2023-05-07T09:52:46;6.83;;;6.13;;
11807;SDS011;5961;42.640;23.380;2023-05-07T09:55:13;7.63;;;5.17;;
11807;SDS011;5961;42.640;23.380;2023-05-07T09:57:41;7.27;;;5.07;;
11807;SDS011;5961;42.640;23.380;2023-05-07T10:00:11;7.10;;;5.27;;
11807;SDS011;5961;42.640;23.380;2023-05-07T10:02:40;5.57;;;5.07;;
11807;SDS011;5961;42.640;23.380;2023-05-07T10:05:13;6.27;;;4.37;;
11807;SDS011;5961;42.640;23.380;2023-05-07T10:07:41;4.57;;;4.17;;
11807;SDS011;5961;42.640;23.380;2023-05-07T10:10:08;10.53;;;4.63;;
11807;SDS011;5961;42.640;23.380;2023-05-07T10:12:35;8.17;;;5.00;;
11807;SDS011;5961;42.640;23.380;2023-05-07T10:15:06;5.17;;;4.67;;
11807;SDS011;5961;42.640;23.380;2023-05-07T10:17:36;12.00;;;8.70;;
11807;SDS011;5961;42.640;23.380;2023-05-07T10:20:03;6.13;;;4.50;;
11807;SDS011;5961;42.640;23.380;2023-05-07T10:22:32;6.40;;;4.50;;
11807;SDS011;5961;42.640;23.380;2023-05-07T10:25:04;6.60;;;4.90;;
11807;SDS011;5961;42.640;23.380;2023-05-07T10:27:36;5.83;;;4.80;;
11807;SDS011;5961;42.640;23.380;2023-05-07T10:30:07;5.60;;;4.80;;
11807;SDS011;5961;42.640;23.380;2023-05-07T10:32:43;4.83;;;4.30;;
11807;SDS011;5961;42.640;23.380;2023-05-07T10:35:14;4.93;;;4.13;;
11807;SDS011;5961;42.640;23.380;2023-05-07T10:37:43;5.53;;;4.53;;
11807;SDS011;5961;42.640;23.380;2023-05-07T10:40:11;6.17;;;4.17;;
11807;SDS011;5961;42.640;23.380;2023-05-07T10:42:48;6.50;;;4.73;;
11807;SDS011;5961;42.640;23.380;2023-05-07T10:45:20;4.93;;;4.13;;
11807;SDS011;5961;42.640;23.380;2023-05-07T10:48:07;5.47;;;4.83;;
11807;SDS011;5961;42.640;23.380;2023-05-07T10:50:38;6.63;;;4.70;;
11807;SDS011;5961;42.640;23.380;2023-05-07T10:53:21;6.13;;;4.90;;
11807;SDS011;5961;42.640;23.380;2023-05-07T11:01:59;7.17;;;4.63;;
11807;SDS011;5961;42.640;23.380;2023-05-07T11:04:29;7.10;;;5.30;;
11807;SDS011;5961;42.640;23.380;2023-05-07T11:09:54;5.07;;;4.57;;
11807;SDS011;5961;42.640;23.380;2023-05-07T11:15:36;5.72;;;4.30;;
11807;SDS011;5961;42.640;23.380;2023-05-07T11:18:08;7.10;;;5.30;;
11807;SDS011;5961;42.640;23.380;2023-05-07T11:20:46;7.57;;;6.25;;
11807;SDS011;5961;42.640;23.380;2023-05-07T11:26:25;5.72;;;5.07;;
11807;SDS011;5961;42.640;23.380;2023-05-07T11:28:53;4.75;;;4.15;;
11807;SDS011;5961;42.640;23.380;2023-05-07T11:31:21;9.75;;;6.90;;
11807;SDS011;5961;42.640;23.380;2023-05-07T11:33:49;7.53;;;5.78;;
11807;SDS011;5961;42.640;23.380;2023-05-07T11:36:18;8.27;;;4.47;;
11807;SDS011;5961;42.640;23.380;2023-05-07T11:38:46;6.80;;;4.97;;
11807;SDS011;5961;42.640;23.380;2023-05-07T11:41:12;5.95;;;4.70;;
11807;SDS011;5961;42.640;23.380;2023-05-07T11:43:53;5.43;;;4.93;;
11807;SDS011;5961;42.640;23.380;2023-05-07T11:46:21;7.85;;;4.90;;
11807;SDS011;5961;42.640;23.380;2023-05-07T11:48:47;6.15;;;5.20;;
11807;SDS011;5961;42.640;23.380;2023-05-07T11:51:17;6.82;;;4.63;;
11807;SDS011;5961;42.640;23.380;2023-05-07T11:53:45;5.38;;;4.60;;
11807;SDS011;5961;42.640;23.380;2023-05-07T11:56:12;5.32;;;4.82;;
11807;SDS011;5961;42.640;23.380;2023-05-07T11:58:40;5.53;;;4.70;;
11807;SDS011;5961;42.640;23.380;2023-05-07T12:01:08;5.00;;;4.57;;
11807;SDS011;5961;42.640;23.380;2023-05-07T12:03:35;5.28;;;4.85;;
11807;SDS011;5961;42.640;23.380;2023-05-07T12:06:05;4.43;;;4.03;;
11807;SDS011;5961;42.640;23.380;2023-05-07T12:08:35;6.97;;;5.20;;
11807;SDS011;5961;42.640;23.380;2023-05-07T12:11:03;5.20;;;4.60;;
11807;SDS011;5961;42.640;23.380;2023-05-07T12:13:29;5.60;;;4.60;;
11807;SDS011;5961;42.640;23.380;2023-05-07T12:15:56;9.82;;;8.02;;
11807;SDS011;5961;42.640;23.380;2023-05-07T12:18:23;5.97;;;5.38;;
11807;SDS011;5961;42.640;23.380;2023-05-07T12:20:51;8.68;;;4.90;;
11807;SDS011;5961;42.640;23.380;2023-05-07T12:23:17;7.63;;;5.20;;
11807;SDS011;5961;42.640;23.380;2023-05-07T12:25:46;6.65;;;4.80;;
11807;SDS011;5961;42.640;23.380;2023-05-07T12:28:13;6.32;;;4.63;;
11807;SDS011;5961;42.640;23.380;2023-05-07T12:30:40;5.95;;;4.90;;
11807;SDS011;5961;42.640;23.380;2023-05-07T12:33:09;5.50;;;4.43;;
11807;SDS011;5961;42.640;23.380;2023-05-07T12:35:37;6.70;;;4.90;;
11807;SDS011;5961;42.640;23.380;2023-05-07T12:38:07;5.50;;;4.57;;
11807;SDS011;5961;42.640;23.380;2023-05-07T12:40:36;7.63;;;4.50;;
11807;SDS011;5961;42.640;23.380;2023-05-07T12:43:04;6.97;;;4.43;;
11807;SDS011;5961;42.640;23.380;2023-05-07T12:45:31;8.77;;;5.75;;
11807;SDS011;5961;42.640;23.380;2023-05-07T12:48:02;4.63;;;4.05;;
11807;SDS011;5961;42.640;23.380;2023-05-07T12:50:30;4.80;;;4.40;;
11807;SDS011;5961;42.640;23.380;2023-05-07T12:52:58;5.07;;;4.57;;
11807;SDS011;5961;42.640;23.380;2023-05-07T12:55:25;6.45;;;4.40;;
11807;SDS011;5961;42.640;23.380;2023-05-07T12:57:52;4.82;;;4.35;;
11807;SDS011;5961;42.640;23.380;2023-05-07T13:00:33;6.85;;;3.92;;
11807;SDS011;5961;42.640;23.380;2023-05-07T13:03:00;5.63;;;4.00;;
11807;SDS011;5961;42.640;23.380;2023-05-07T13:05:27;6.68;;;4.30;;
11807;SDS011;5961;42.640;23.380;2023-05-07T13:07:54;5.75;;;4.00;;
11807;SDS011;5961;42.640;23.380;2023-05-07T13:10:21;4.90;;;4.50;;
11807;SDS011;5961;42.640;23.380;2023-05-07T13:12:49;5.20;;;3.97;;
11807;SDS011;5961;42.640;23.380;2023-05-07T13:15:16;5.57;;;4.20;;
11807;SDS011;5961;42.640;23.380;2023-05-07T13:17:44;6.85;;;4.20;;
11807;SDS011;5961;42.640;23.380;2023-05-07T13:20:11;5.97;;;4.07;;
11807;SDS011;5961;42.640;23.380;2023-05-07T13:22:38;3.95;;;3.65;;
11807;SDS011;5961;42.640;23.380;2023-05-07T13:25:06;4.45;;;4.05;;
11807;SDS011;5961;42.640;23.380;2023-05-07T13:27:34;5.55;;;4.38;;
11807;SDS011;5961;42.640;23.380;2023-05-07T13:30:01;7.05;;;4.00;;
11807;SDS011;5961;42.640;23.380;2023-05-07T13:32:29;5.45;;;3.65;;
11807;SDS011;5961;42.640;23.380;2023-05-07T13:34:58;3.63;;;3.33;;
11807;SDS011;5961;42.640;23.380;2023-05-07T13:37:25;4.97;;;3.30;;
11807;SDS011;5961;42.640;23.380;2023-05-07T13:39:51;3.60;;;3.30;;
11807;SDS011;5961;42.640;23.380;2023-05-07T13:42:18;4.22;;;3.70;;
11807;SDS011;5961;42.640;23.380;2023-05-07T13:44:45;4.68;;;3.88;;
11807;SDS011;5961;42.640;23.380;2023-05-07T13:47:12;4.40;;;3.30;;
11807;SDS011;5961;42.640;23.380;2023-05-07T13:49:38;4.93;;;3.45;;
11807;SDS011;5961;42.640;23.380;2023-05-07T13:52:06;3.63;;;3.33;;
11807;SDS011;5961;42.640;23.380;2023-05-07T13:54:33;4.90;;;4.00;;
11807;SDS011;5961;42.640;23.380;2023-05-07T13:57:00;4.25;;;3.45;;
11807;SDS011;5961;42.640;23.380;2023-05-07T13:59:26;3.97;;;3.65;;
11807;SDS011;5961;42.640;23.380;2023-05-07T14:01:53;3.83;;;3.53;;
11807;SDS011;5961;42.640;23.380;2023-05-07T14:04:20;3.95;;;2.90;;
11807;SDS011;5961;42.640;23.380;2023-05-07T14:06:47;4.25;;;3.45;;
11807;SDS011;5961;42.640;23.380;2023-05-07T14:09:15;3.75;;;3.22;;
11807;SDS011;5961;42.640;23.380;2023-05-07T14:11:42;3.80;;;3.30;;
11807;SDS011;5961;42.640;23.380;2023-05-07T14:14:09;3.42;;;3.13;;
11807;SDS011;5961;42.640;23.380;2023-05-07T14:16:36;6.65;;;3.58;;
11807;SDS011;5961;42.640;23.380;2023-05-07T14:19:03;3.65;;;3.30;;
11807;SDS011;5961;42.640;23.380;2023-05-07T14:21:30;3.80;;;3.47;;
11807;SDS011;5961;42.640;23.380;2023-05-07T14:23:57;3.92;;;3.17;;
11807;SDS011;5961;42.640;23.380;2023-05-07T14:26:26;6.00;;;3.63;;
11807;SDS011;5961;42.640;23.380;2023-05-07T14:28:53;3.95;;;3.38;;
11807;SDS011;5961;42.640;23.380;2023-05-07T14:31:22;5.93;;;3.55;;
11807;SDS011;5961;42.640;23.380;2023-05-07T14:33:49;4.57;;;3.50;;
11807;SDS011;5961;42.640;23.380;2023-05-07T14:36:16;4.35;;;3.35;;
11807;SDS011;5961;42.640;23.380;2023-05-07T14:38:45;5.03;;;3.55;;
11807;SDS011;5961;42.640;23.380;2023-05-07T14:41:11;4.45;;;4.05;;
11807;SDS011;5961;42.640;23.380;2023-05-07T14:43:39;6.07;;;4.93;;
11807;SDS011;5961;42.640;23.380;2023-05-07T14:46:06;5.65;;;4.85;;
11807;SDS011;5961;42.640;23.380;2023-05-07T14:48:33;3.95;;;3.40;;
11807;SDS011;5961;42.640;23.380;2023-05-07T14:50:59;3.42;;;3.13;;
11807;SDS011;5961;42.640;23.380;2023-05-07T14:53:26;5.25;;;3.35;;
11807;SDS011;5961;42.640;23.380;2023-05-07T14:55:53;4.55;;;3.47;;